Time;durP1;ratioP1;P1;durP2;ratioP2;P2;SDS_P1;SDS_P2;PMS_P1;PMS_P2;Temp;Humidity;BMP_temperature;BMP_pressure;BME280_temperature;BME280_humidity;BME280_pressure;Samples;Min_cycle;Max_cycle;Signal;HPM_P1;HPM_P2
2023/09/14 00:02:19;;;;;;;9.30;4.18;;;;;;;;;;6160258;23;20023;-55
2023/09/14 00:04:47;;;;;;;10.88;3.95;;;;;;;;;;6177204;23;20017;-55
2023/09/14 00:07:15;;;;;;;12.60;4.60;;;;;;;;;;6190111;23;20021;-57
2023/09/14 00:09:43;;;;;;;12.30;4.60;;;;;;;;;;6156126;23;20039;-55
2023/09/14 00:12:11;;;;;;;11.63;3.83;;;;;;;;;;6190240;23;20091;-58
2023/09/14 00:14:39;;;;;;;12.38;4.32;;;;;;;;;;6177204;23;20092;-58
2023/09/14 00:17:08;;;;;;;11.23;4.50;;;;;;;;;;6186883;23;20067;-58
2023/09/14 00:19:39;;;;;;;12.17;4.33;;;;;;;;;;6184293;23;20020;-57
2023/09/14 00:22:06;;;;;;;10.00;4.13;;;;;;;;;;6183925;23;20074;-55
2023/09/14 00:24:34;;;;;;;10.07;4.45;;;;;;;;;;6183802;23;20056;-57
2023/09/14 00:27:03;;;;;;;11.05;4.68;;;;;;;;;;6185344;23;20036;-58
2023/09/14 00:29:30;;;;;;;7.95;4.18;;;;;;;;;;6183075;23;20459;-58
2023/09/14 00:31:58;;;;;;;10.70;4.60;;;;;;;;;;6191340;23;20401;-58
2023/09/14 00:34:26;;;;;;;7.68;4.10;;;;;;;;;;6180427;23;20154;-57
2023/09/14 00:36:55;;;;;;;10.68;4.10;;;;;;;;;;6185961;23;20190;-56
2023/09/14 00:39:23;;;;;;;12.80;4.07;;;;;;;;;;6178641;23;20016;-57
2023/09/14 00:41:51;;;;;;;9.75;4.32;;;;;;;;;;6190620;23;20039;-56
2023/09/14 00:44:19;;;;;;;10.70;3.73;;;;;;;;;;6178412;23;20017;-57
2023/09/14 00:46:46;;;;;;;11.25;4.05;;;;;;;;;;6188119;23;20016;-57
2023/09/14 00:49:15;;;;;;;9.45;4.03;;;;;;;;;;6187843;23;20016;-57
2023/09/14 00:51:43;;;;;;;11.68;4.35;;;;;;;;;;6145848;23;20016;-57
2023/09/14 00:54:12;;;;;;;13.48;4.95;;;;;;;;;;6189260;23;20016;-57
2023/09/14 00:56:40;;;;;;;10.53;3.93;;;;;;;;;;6154325;23;20491;-55
2023/09/14 00:59:08;;;;;;;11.80;4.53;;;;;;;;;;6185690;23;20013;-57
2023/09/14 01:01:38;;;;;;;11.30;4.85;;;;;;;;;;6178115;23;20017;-58
2023/09/14 01:04:08;;;;;;;11.85;4.70;;;;;;;;;;6191044;23;20482;-57
2023/09/14 01:06:36;;;;;;;13.77;4.50;;;;;;;;;;6195745;23;20102;-55
2023/09/14 01:09:05;;;;;;;11.60;4.57;;;;;;;;;;6176989;23;20052;-56
2023/09/14 01:11:34;;;;;;;10.00;4.45;;;;;;;;;;6184679;23;20500;-57
2023/09/14 01:14:08;;;;;;;10.32;4.32;;;;;;;;;;6190764;23;20482;-57
2023/09/14 01:16:41;;;;;;;11.45;4.63;;;;;;;;;;6186129;23;20540;-56
2023/09/14 01:19:15;;;;;;;10.70;4.03;;;;;;;;;;6154599;23;20435;-57
2023/09/14 01:21:53;;;;;;;8.10;4.00;;;;;;;;;;6187995;23;20017;-55
2023/09/14 01:24:26;;;;;;;10.18;3.88;;;;;;;;;;6174801;23;20021;-56
2023/09/14 01:26:56;;;;;;;9.40;3.95;;;;;;;;;;6189224;23;20016;-57
2023/09/14 01:29:23;;;;;;;9.23;4.55;;;;;;;;;;6181376;23;20088;-56
2023/09/14 01:31:51;;;;;;;11.20;4.13;;;;;;;;;;6160947;23;20012;-57
2023/09/14 01:34:19;;;;;;;10.40;4.10;;;;;;;;;;6182316;23;20025;-57
2023/09/14 01:36:49;;;;;;;12.15;4.55;;;;;;;;;;6188216;23;20120;-56
2023/09/14 01:39:17;;;;;;;10.20;4.30;;;;;;;;;;6189588;23;20013;-58
2023/09/14 01:41:46;;;;;;;11.05;4.50;;;;;;;;;;6167510;23;20027;-57
2023/09/14 01:44:15;;;;;;;10.55;4.25;;;;;;;;;;6188295;23;20020;-55
2023/09/14 01:46:43;;;;;;;10.47;3.67;;;;;;;;;;6184873;23;20029;-57
2023/09/14 01:49:11;;;;;;;9.43;3.97;;;;;;;;;;6160729;23;20019;-56
2023/09/14 01:51:39;;;;;;;10.13;4.43;;;;;;;;;;6186103;23;20108;-58
2023/09/14 01:54:07;;;;;;;10.38;3.70;;;;;;;;;;6195591;23;20055;-57
2023/09/14 01:56:35;;;;;;;9.85;4.07;;;;;;;;;;6187777;23;20016;-57
2023/09/14 01:59:03;;;;;;;8.37;3.70;;;;;;;;;;6185803;23;20013;-57
2023/09/14 02:01:32;;;;;;;10.75;4.00;;;;;;;;;;6195017;23;20016;-56
2023/09/14 02:04:00;;;;;;;9.70;3.90;;;;;;;;;;6179462;23;20031;-56
2023/09/14 02:06:28;;;;;;;15.52;4.00;;;;;;;;;;6193758;23;20447;-58
2023/09/14 02:08:55;;;;;;;10.70;3.70;;;;;;;;;;6186722;23;20027;-54
2023/09/14 02:11:24;;;;;;;9.50;3.97;;;;;;;;;;6197434;23;20012;-57
2023/09/14 02:13:51;;;;;;;8.35;3.88;;;;;;;;;;6179701;23;20023;-57
2023/09/14 02:16:19;;;;;;;9.48;3.55;;;;;;;;;;6193795;23;20048;-57
2023/09/14 02:18:51;;;;;;;8.45;3.50;;;;;;;;;;6187497;23;20059;-58
2023/09/14 02:21:20;;;;;;;8.38;3.88;;;;;;;;;;6181360;23;20023;-57
2023/09/14 02:23:48;;;;;;;9.20;3.90;;;;;;;;;;6187376;23;20497;-56
2023/09/14 02:26:16;;;;;;;9.18;3.85;;;;;;;;;;6193588;23;20019;-57
2023/09/14 02:28:44;;;;;;;12.82;4.00;;;;;;;;;;6182623;23;20047;-56
2023/09/14 02:31:13;;;;;;;8.35;3.45;;;;;;;;;;6194144;23;20016;-55
2023/09/14 02:33:40;;;;;;;11.85;3.88;;;;;;;;;;6181266;23;20017;-57
2023/09/14 02:36:10;;;;;;;10.40;4.10;;;;;;;;;;6199870;23;20051;-55
2023/09/14 02:38:38;;;;;;;8.52;3.83;;;;;;;;;;6189048;23;20017;-55
2023/09/14 02:41:07;;;;;;;8.23;3.38;;;;;;;;;;6190390;23;20070;-57
2023/09/14 02:43:36;;;;;;;12.02;3.88;;;;;;;;;;6193422;23;20043;-57
2023/09/14 02:46:04;;;;;;;11.00;4.00;;;;;;;;;;6185635;23;20021;-57
2023/09/14 02:48:32;;;;;;;11.00;4.40;;;;;;;;;;6195717;23;20091;-57
2023/09/14 02:51:00;;;;;;;10.48;3.85;;;;;;;;;;6183688;23;20024;-57
2023/09/14 02:53:29;;;;;;;10.35;3.60;;;;;;;;;;6183067;23;20072;-58
2023/09/14 02:55:57;;;;;;;13.02;4.15;;;;;;;;;;6190666;23;20514;-57
2023/09/14 02:58:25;;;;;;;10.38;4.13;;;;;;;;;;6182161;23;20024;-56
2023/09/14 03:00:53;;;;;;;11.73;4.50;;;;;;;;;;6192577;23;20434;-56
2023/09/14 03:03:20;;;;;;;12.65;4.20;;;;;;;;;;6184826;23;20535;-54
2023/09/14 03:05:49;;;;;;;12.77;4.30;;;;;;;;;;6195066;23;20049;-56
2023/09/14 03:08:17;;;;;;;9.73;4.70;;;;;;;;;;6177579;23;20017;-57
2023/09/14 03:10:46;;;;;;;11.13;4.90;;;;;;;;;;6197241;23;20067;-55
2023/09/14 03:13:14;;;;;;;20.23;4.73;;;;;;;;;;6185341;23;20171;-57
2023/09/14 03:15:42;;;;;;;12.02;4.50;;;;;;;;;;6192761;23;20021;-56
2023/09/14 03:18:10;;;;;;;14.07;4.53;;;;;;;;;;6183491;23;20455;-55
2023/09/14 03:20:38;;;;;;;11.73;5.05;;;;;;;;;;6187142;23;20016;-55
2023/09/14 03:23:06;;;;;;;9.05;4.22;;;;;;;;;;6188872;23;20013;-57
2023/09/14 03:25:33;;;;;;;11.47;4.40;;;;;;;;;;6168251;23;20035;-57
2023/09/14 03:28:04;;;;;;;10.40;4.60;;;;;;;;;;6191813;23;20034;-55
2023/09/14 03:30:33;;;;;;;13.65;5.10;;;;;;;;;;6184304;23;20095;-57
2023/09/14 03:33:01;;;;;;;10.00;4.82;;;;;;;;;;6195506;23;20051;-55
2023/09/14 03:35:30;;;;;;;10.88;4.45;;;;;;;;;;6194559;23;20043;-57
2023/09/14 03:37:58;;;;;;;10.63;5.03;;;;;;;;;;6165968;23;20020;-55
2023/09/14 03:40:25;;;;;;;12.90;5.22;;;;;;;;;;6192662;23;20020;-57
2023/09/14 03:42:53;;;;;;;11.65;4.90;;;;;;;;;;6197720;23;20386;-56
2023/09/14 03:45:23;;;;;;;13.25;5.68;;;;;;;;;;6180125;23;20024;-57
2023/09/14 03:47:54;;;;;;;14.30;5.22;;;;;;;;;;6191181;23;20050;-56
2023/09/14 03:50:22;;;;;;;11.63;5.30;;;;;;;;;;6193471;23;20016;-56
2023/09/14 03:52:49;;;;;;;12.20;4.80;;;;;;;;;;6192218;23;20027;-57
2023/09/14 03:55:17;;;;;;;11.27;4.45;;;;;;;;;;6191447;23;20021;-57
2023/09/14 03:57:47;;;;;;;10.68;4.90;;;;;;;;;;6192148;23;20020;-57
2023/09/14 04:00:20;;;;;;;9.52;4.60;;;;;;;;;;6201505;23;20016;-57
2023/09/14 04:02:50;;;;;;;11.70;5.13;;;;;;;;;;6191433;23;20021;-57
2023/09/14 04:05:18;;;;;;;11.25;4.38;;;;;;;;;;6189026;23;20012;-57
2023/09/14 04:07:46;;;;;;;9.57;4.05;;;;;;;;;;6194522;23;20208;-57
2023/09/14 04:10:13;;;;;;;10.20;4.43;;;;;;;;;;6186928;23;20027;-56
2023/09/14 04:12:42;;;;;;;12.20;4.07;;;;;;;;;;6193256;23;20997;-57
2023/09/14 04:15:10;;;;;;;11.33;4.60;;;;;;;;;;6191845;23;20312;-57
2023/09/14 04:17:39;;;;;;;9.27;4.10;;;;;;;;;;6191619;23;20027;-56
2023/09/14 04:20:09;;;;;;;8.65;3.60;;;;;;;;;;6190813;23;20028;-55
2023/09/14 04:22:37;;;;;;;9.63;4.78;;;;;;;;;;6187088;23;20027;-56
2023/09/14 04:25:07;;;;;;;11.15;4.57;;;;;;;;;;6190622;23;20028;-56
2023/09/14 04:27:34;;;;;;;9.47;4.27;;;;;;;;;;6188455;23;20032;-55
2023/09/14 04:30:02;;;;;;;9.43;4.40;;;;;;;;;;6196676;23;20013;-57
2023/09/14 04:32:31;;;;;;;9.57;3.90;;;;;;;;;;6186856;23;20444;-57
2023/09/14 04:34:59;;;;;;;12.25;4.05;;;;;;;;;;6192888;23;20024;-57
2023/09/14 04:37:28;;;;;;;11.85;4.40;;;;;;;;;;6188901;23;20355;-56
2023/09/14 04:39:57;;;;;;;10.40;4.50;;;;;;;;;;6186163;23;20036;-55
2023/09/14 04:42:24;;;;;;;10.32;3.95;;;;;;;;;;6191432;23;20028;-51
2023/09/14 04:44:54;;;;;;;9.60;4.53;;;;;;;;;;6184290;23;20099;-55
2023/09/14 04:47:23;;;;;;;9.63;4.45;;;;;;;;;;6191446;23;20059;-56
2023/09/14 04:49:51;;;;;;;8.45;3.83;;;;;;;;;;6184988;23;20013;-54
2023/09/14 04:52:19;;;;;;;11.27;4.10;;;;;;;;;;6189235;23;20012;-57
2023/09/14 04:54:50;;;;;;;13.05;4.55;;;;;;;;;;6176191;23;20020;-56
2023/09/14 04:57:18;;;;;;;10.05;4.15;;;;;;;;;;6188234;23;20051;-57
2023/09/14 04:59:45;;;;;;;9.15;4.35;;;;;;;;;;6170993;23;20600;-57
2023/09/14 05:02:14;;;;;;;10.38;4.30;;;;;;;;;;6182919;23;20017;-56
2023/09/14 05:04:41;;;;;;;10.53;4.20;;;;;;;;;;6145323;23;20258;-57
2023/09/14 05:07:09;;;;;;;11.52;4.70;;;;;;;;;;6157224;23;20013;-57
2023/09/14 05:09:37;;;;;;;8.88;3.97;;;;;;;;;;6180999;23;20474;-57
2023/09/14 05:12:07;;;;;;;9.43;4.00;;;;;;;;;;6190725;23;20092;-55
2023/09/14 05:14:35;;;;;;;11.48;4.18;;;;;;;;;;6179459;23;20062;-57
2023/09/14 05:17:04;;;;;;;12.90;4.30;;;;;;;;;;6186481;23;20027;-57
2023/09/14 05:19:31;;;;;;;12.32;4.60;;;;;;;;;;6185042;23;20021;-56
2023/09/14 05:21:59;;;;;;;9.38;4.00;;;;;;;;;;6185412;23;20017;-57
2023/09/14 05:24:27;;;;;;;10.07;4.07;;;;;;;;;;6183358;23;20352;-57
2023/09/14 05:26:55;;;;;;;9.85;3.85;;;;;;;;;;6181335;23;20020;-58
2023/09/14 05:29:24;;;;;;;10.80;4.00;;;;;;;;;;6174391;23;20017;-55
2023/09/14 05:31:52;;;;;;;9.35;4.20;;;;;;;;;;6184166;23;20071;-55
2023/09/14 05:34:19;;;;;;;10.10;4.10;;;;;;;;;;6185956;23;20478;-56
2023/09/14 05:36:48;;;;;;;9.40;4.32;;;;;;;;;;6133556;23;20091;-56
2023/09/14 05:39:20;;;;;;;9.38;4.13;;;;;;;;;;6182267;23;20387;-57
2023/09/14 05:41:50;;;;;;;11.00;4.07;;;;;;;;;;6189230;23;20016;-55
2023/09/14 05:44:18;;;;;;;10.68;4.60;;;;;;;;;;6180688;23;20016;-56
2023/09/14 05:46:47;;;;;;;10.60;4.18;;;;;;;;;;6189161;23;20062;-57
2023/09/14 05:49:15;;;;;;;10.40;4.88;;;;;;;;;;6176118;23;20311;-56
2023/09/14 05:51:43;;;;;;;9.13;3.90;;;;;;;;;;6181402;23;20443;-55
2023/09/14 05:54:11;;;;;;;11.37;4.40;;;;;;;;;;6188595;23;20040;-57
2023/09/14 05:56:39;;;;;;;10.73;4.18;;;;;;;;;;6182573;23;20016;-55
2023/09/14 05:59:07;;;;;;;11.68;4.60;;;;;;;;;;6188646;23;20021;-57
2023/09/14 06:01:53;;;;;;;9.07;3.95;;;;;;;;;;6181218;23;20124;-55
2023/09/14 06:04:21;;;;;;;10.40;3.97;;;;;;;;;;6180366;23;20024;-56
2023/09/14 06:06:49;;;;;;;10.63;4.10;;;;;;;;;;6181222;23;20016;-55
2023/09/14 06:09:17;;;;;;;10.90;4.47;;;;;;;;;;6188013;23;20448;-57
2023/09/14 06:11:45;;;;;;;13.63;4.70;;;;;;;;;;6180827;23;20211;-54
2023/09/14 06:14:14;;;;;;;8.80;4.20;;;;;;;;;;6181968;23;20019;-57
2023/09/14 06:16:42;;;;;;;10.40;4.47;;;;;;;;;;6182981;23;20021;-58
2023/09/14 06:19:13;;;;;;;16.80;4.90;;;;;;;;;;6179690;23;20020;-56
2023/09/14 06:21:40;;;;;;;9.27;4.20;;;;;;;;;;6177948;23;20352;-56
2023/09/14 06:24:09;;;;;;;11.05;4.15;;;;;;;;;;6187635;23;20013;-55
2023/09/14 06:26:38;;;;;;;9.73;3.97;;;;;;;;;;6176721;23;20429;-56
2023/09/14 06:29:05;;;;;;;9.27;3.80;;;;;;;;;;6186948;23;20454;-56
2023/09/14 06:31:33;;;;;;;9.87;4.40;;;;;;;;;;6142873;23;20071;-54
2023/09/14 06:34:05;;;;;;;10.50;3.90;;;;;;;;;;6179727;23;20020;-54
2023/09/14 06:36:35;;;;;;;11.65;3.53;;;;;;;;;;6184613;23;20017;-55
2023/09/14 06:39:03;;;;;;;7.40;3.40;;;;;;;;;;6180420;23;20016;-54
2023/09/14 06:41:30;;;;;;;8.32;3.70;;;;;;;;;;6187795;23;20016;-54
2023/09/14 06:43:58;;;;;;;10.47;4.10;;;;;;;;;;6174787;23;20017;-54
2023/09/14 06:46:26;;;;;;;10.00;3.75;;;;;;;;;;6195010;23;20020;-55
2023/09/14 06:48:54;;;;;;;8.85;3.65;;;;;;;;;;6173537;23;20091;-54
2023/09/14 06:51:23;;;;;;;8.55;3.30;;;;;;;;;;6185309;23;20712;-57
2023/09/14 06:53:52;;;;;;;10.63;3.65;;;;;;;;;;6183179;23;20364;-56
2023/09/14 06:56:20;;;;;;;9.03;3.27;;;;;;;;;;6157279;23;20024;-55
2023/09/14 06:58:48;;;;;;;8.25;3.13;;;;;;;;;;6187850;23;20017;-54
2023/09/14 07:01:20;;;;;;;11.90;3.53;;;;;;;;;;6171139;23;20074;-57
2023/09/14 07:03:49;;;;;;;9.35;3.33;;;;;;;;;;6153914;23;20458;-54
2023/09/14 07:06:18;;;;;;;8.23;2.90;;;;;;;;;;6185168;23;20020;-57
2023/09/14 07:08:46;;;;;;;7.07;3.10;;;;;;;;;;6177821;23;20089;-55
2023/09/14 07:11:16;;;;;;;6.20;3.10;;;;;;;;;;6187971;23;20049;-57
2023/09/14 07:13:44;;;;;;;9.18;3.03;;;;;;;;;;6183345;23;20062;-55
2023/09/14 07:16:12;;;;;;;7.72;2.63;;;;;;;;;;6183432;23;20027;-56
2023/09/14 07:18:40;;;;;;;9.18;3.22;;;;;;;;;;6178938;23;20347;-57
2023/09/14 07:21:08;;;;;;;9.27;3.13;;;;;;;;;;6181950;23;20027;-57
2023/09/14 07:23:35;;;;;;;8.02;3.05;;;;;;;;;;6178265;23;20016;-57
2023/09/14 07:26:04;;;;;;;9.07;2.97;;;;;;;;;;6139942;23;20059;-56
2023/09/14 07:28:34;;;;;;;8.63;3.38;;;;;;;;;;6185250;23;20082;-56
2023/09/14 07:31:03;;;;;;;8.10;2.80;;;;;;;;;;6175926;23;20836;-57
2023/09/14 07:33:31;;;;;;;9.10;2.77;;;;;;;;;;6183554;23;20016;-57
2023/09/14 07:35:59;;;;;;;7.25;2.63;;;;;;;;;;6181222;23;20024;-57
2023/09/14 07:38:26;;;;;;;8.32;2.92;;;;;;;;;;6184473;23;20024;-57
2023/09/14 07:40:54;;;;;;;6.93;2.45;;;;;;;;;;6179401;23;20021;-56
2023/09/14 07:43:22;;;;;;;8.02;2.67;;;;;;;;;;6190291;23;20024;-57
2023/09/14 07:45:51;;;;;;;6.73;2.37;;;;;;;;;;6181639;23;20020;-57
2023/09/14 07:48:19;;;;;;;6.78;1.92;;;;;;;;;;6183149;23;20348;-57
2023/09/14 07:50:48;;;;;;;5.97;1.90;;;;;;;;;;6179513;23;20017;-57
2023/09/14 07:53:15;;;;;;;7.07;2.38;;;;;;;;;;6178907;23;20463;-57
2023/09/14 07:55:43;;;;;;;7.25;2.13;;;;;;;;;;6181742;23;20047;-57
2023/09/14 07:58:11;;;;;;;7.20;2.47;;;;;;;;;;6181343;23;20020;-57
2023/09/14 08:00:39;;;;;;;9.25;2.10;;;;;;;;;;6155000;23;20055;-57
2023/09/14 08:03:09;;;;;;;6.10;1.90;;;;;;;;;;6146174;23;20453;-57
2023/09/14 08:05:38;;;;;;;6.70;2.10;;;;;;;;;;6147335;23;20447;-57
2023/09/14 08:08:06;;;;;;;7.57;2.20;;;;;;;;;;6187343;23;20028;-55
2023/09/14 08:10:34;;;;;;;6.80;2.37;;;;;;;;;;6142164;23;20063;-57
2023/09/14 08:13:07;;;;;;;8.45;1.73;;;;;;;;;;6162868;23;20783;-58
2023/09/14 08:15:35;;;;;;;6.45;2.58;;;;;;;;;;6160379;23;20488;-57
2023/09/14 08:18:03;;;;;;;6.10;2.08;;;;;;;;;;6176445;23;20052;-57
2023/09/14 08:20:32;;;;;;;7.30;2.20;;;;;;;;;;6153244;23;20027;-57
2023/09/14 08:23:04;;;;;;;5.27;1.80;;;;;;;;;;6140292;23;20094;-59
2023/09/14 08:25:33;;;;;;;7.28;2.00;;;;;;;;;;6173673;23;20020;-57
2023/09/14 08:28:01;;;;;;;7.88;1.55;;;;;;;;;;6153601;23;20017;-57
2023/09/14 08:30:29;;;;;;;7.70;2.03;;;;;;;;;;6172185;23;20966;-59
2023/09/14 08:32:57;;;;;;;5.82;1.85;;;;;;;;;;6156511;23;20641;-56
2023/09/14 08:35:25;;;;;;;5.80;2.00;;;;;;;;;;6163012;23;20498;-58
2023/09/14 08:37:55;;;;;;;5.75;1.65;;;;;;;;;;6156825;23;21040;-58
2023/09/14 08:40:24;;;;;;;6.15;1.40;;;;;;;;;;6167709;23;20020;-59
2023/09/14 08:42:52;;;;;;;5.25;1.92;;;;;;;;;;6157881;23;20016;-58
2023/09/14 08:45:21;;;;;;;6.50;1.65;;;;;;;;;;6164426;23;20530;-58
2023/09/14 08:47:52;;;;;;;4.97;1.50;;;;;;;;;;6187459;23;20044;-58
2023/09/14 08:50:20;;;;;;;4.85;1.50;;;;;;;;;;6188436;23;20528;-58
2023/09/14 08:52:49;;;;;;;6.35;1.80;;;;;;;;;;6184780;23;20345;-58
2023/09/14 08:55:19;;;;;;;6.57;1.77;;;;;;;;;;6187738;23;20031;-58
2023/09/14 08:57:48;;;;;;;6.22;1.80;;;;;;;;;;6180347;23;20016;-58
2023/09/14 09:00:16;;;;;;;6.00;1.60;;;;;;;;;;6156181;23;20009;-58
2023/09/14 09:02:44;;;;;;;6.70;1.50;;;;;;;;;;6179691;23;20181;-57
2023/09/14 09:05:12;;;;;;;7.60;1.02;;;;;;;;;;6185697;23;20013;-57
2023/09/14 09:07:41;;;;;;;5.47;1.35;;;;;;;;;;6179417;23;20017;-56
2023/09/14 09:10:09;;;;;;;6.13;2.10;;;;;;;;;;6183742;23;20055;-58
2023/09/14 09:12:38;;;;;;;5.83;1.40;;;;;;;;;;6180676;23;20517;-58
2023/09/14 09:15:07;;;;;;;4.75;1.50;;;;;;;;;;6176825;23;20063;-57
2023/09/14 09:17:39;;;;;;;5.78;1.55;;;;;;;;;;6129465;23;20031;-59
2023/09/14 09:20:22;;;;;;;6.28;1.60;;;;;;;;;;6179857;23;20823;-58
2023/09/14 09:22:51;;;;;;;5.63;1.55;;;;;;;;;;6187777;23;20024;-58
2023/09/14 09:25:21;;;;;;;5.67;1.50;;;;;;;;;;6181284;23;20479;-58
2023/09/14 09:27:57;;;;;;;7.00;1.92;;;;;;;;;;6177252;23;20329;-56
2023/09/14 09:30:29;;;;;;;4.82;1.63;;;;;;;;;;6189519;23;20016;-57
2023/09/14 09:32:57;;;;;;;4.60;1.65;;;;;;;;;;6173903;23;20024;-58
2023/09/14 09:35:26;;;;;;;7.53;1.70;;;;;;;;;;6183491;23;20047;-54
2023/09/14 09:37:55;;;;;;;6.17;2.13;;;;;;;;;;6176910;23;20017;-58
2023/09/14 09:40:23;;;;;;;7.60;1.90;;;;;;;;;;6165592;23;20036;-58
2023/09/14 09:42:53;;;;;;;5.63;1.42;;;;;;;;;;6181296;23;20017;-59
2023/09/14 09:45:21;;;;;;;5.97;1.45;;;;;;;;;;6166838;23;20206;-58
2023/09/14 09:47:49;;;;;;;5.53;1.50;;;;;;;;;;6186341;23;20443;-57
2023/09/14 09:50:20;;;;;;;5.80;1.70;;;;;;;;;;6184561;23;20048;-57
2023/09/14 09:52:48;;;;;;;7.28;1.63;;;;;;;;;;6187005;23;20443;-58
2023/09/14 09:55:17;;;;;;;4.78;1.42;;;;;;;;;;6171967;23;20027;-57
2023/09/14 09:57:49;;;;;;;5.43;1.75;;;;;;;;;;6182299;23;20012;-58
2023/09/14 10:00:19;;;;;;;7.28;1.80;;;;;;;;;;6177476;23;20020;-57
2023/09/14 10:02:48;;;;;;;5.63;1.40;;;;;;;;;;6185016;23;20128;-57
2023/09/14 10:05:16;;;;;;;6.82;1.45;;;;;;;;;;6174406;23;20027;-57
2023/09/14 10:07:43;;;;;;;6.22;1.55;;;;;;;;;;6187253;23;20040;-59
2023/09/14 10:10:11;;;;;;;6.05;1.60;;;;;;;;;;6173491;23;20138;-58
2023/09/14 10:12:40;;;;;;;7.35;1.90;;;;;;;;;;6130899;23;20580;-58
2023/09/14 10:15:08;;;;;;;4.67;1.20;;;;;;;;;;6180799;23;20023;-58
2023/09/14 10:17:38;;;;;;;7.22;1.80;;;;;;;;;;6159277;23;20017;-57
2023/09/14 10:20:08;;;;;;;5.78;1.75;;;;;;;;;;6175012;23;20071;-56
2023/09/14 10:22:41;;;;;;;6.28;1.35;;;;;;;;;;6180783;23;20016;-57
2023/09/14 10:25:09;;;;;;;6.32;1.70;;;;;;;;;;6151457;23;20458;-58
2023/09/14 10:27:38;;;;;;;5.23;1.20;;;;;;;;;;6185452;23;20486;-58
2023/09/14 10:30:07;;;;;;;6.68;1.70;;;;;;;;;;6189641;23;20024;-56
2023/09/14 10:32:36;;;;;;;5.82;1.70;;;;;;;;;;6183101;23;20020;-58
2023/09/14 10:35:07;;;;;;;6.72;1.80;;;;;;;;;;6189667;23;20091;-57
2023/09/14 10:37:35;;;;;;;6.82;1.90;;;;;;;;;;6186837;23;20016;-56
2023/09/14 10:40:06;;;;;;;5.77;1.63;;;;;;;;;;6162574;23;20017;-57
2023/09/14 10:42:34;;;;;;;7.68;1.50;;;;;;;;;;6187386;23;20023;-57
2023/09/14 10:45:02;;;;;;;4.28;1.48;;;;;;;;;;6180169;23;20020;-57
2023/09/14 10:47:36;;;;;;;7.53;2.17;;;;;;;;;;6191281;23;20022;-58
2023/09/14 10:50:06;;;;;;;5.65;1.67;;;;;;;;;;6183856;23;20428;-57
2023/09/14 10:52:37;;;;;;;4.90;1.50;;;;;;;;;;6174665;23;20020;-57
2023/09/14 10:55:07;;;;;;;6.13;1.60;;;;;;;;;;6151956;23;20017;-53
2023/09/14 10:57:35;;;;;;;6.55;1.83;;;;;;;;;;6183132;23;20372;-58
2023/09/14 11:00:06;;;;;;;5.70;2.10;;;;;;;;;;6146108;23;20020;-57
2023/09/14 11:02:55;;;;;;;7.25;1.80;;;;;;;;;;6154483;23;20048;-58
2023/09/14 11:05:46;;;;;;;6.13;1.80;;;;;;;;;;6157766;23;20301;-57
2023/09/14 11:08:16;;;;;;;5.57;1.55;;;;;;;;;;6124609;23;20091;-57
2023/09/14 11:10:55;;;;;;;4.30;1.30;;;;;;;;;;6125814;23;20060;-58
2023/09/14 11:13:30;;;;;;;5.93;1.60;;;;;;;;;;6144077;23;20028;-58
2023/09/14 11:16:05;;;;;;;5.90;1.48;;;;;;;;;;6146106;23;20358;-56
2023/09/14 11:18:34;;;;;;;5.43;1.90;;;;;;;;;;6153777;23;20044;-56
2023/09/14 11:21:03;;;;;;;5.22;2.25;;;;;;;;;;6149111;23;20060;-57
2023/09/14 11:23:33;;;;;;;5.35;1.85;;;;;;;;;;6149503;23;20134;-58
2023/09/14 11:26:03;;;;;;;7.18;2.70;;;;;;;;;;6153246;23;20017;-56
2023/09/14 11:28:45;;;;;;;7.57;1.77;;;;;;;;;;6127414;23;20017;-55
2023/09/14 11:31:15;;;;;;;9.17;1.77;;;;;;;;;;6123584;23;20021;-57
2023/09/14 11:33:44;;;;;;;10.77;1.60;;;;;;;;;;6136985;23;20021;-58
2023/09/14 11:36:14;;;;;;;5.43;1.70;;;;;;;;;;6124208;23;20017;-58
2023/09/14 11:38:44;;;;;;;5.85;1.70;;;;;;;;;;6141274;23;20021;-57
2023/09/14 11:41:29;;;;;;;6.07;1.70;;;;;;;;;;6124059;23;20469;-57
2023/09/14 11:44:23;;;;;;;4.00;1.10;;;;;;;;;;6138318;23;20025;-57
2023/09/14 11:47:14;;;;;;;5.30;1.35;;;;;;;;;;6142503;23;20024;-57
2023/09/14 11:49:49;;;;;;;6.65;1.40;;;;;;;;;;6129394;23;20028;-56
2023/09/14 11:52:20;;;;;;;4.55;1.33;;;;;;;;;;6130238;23;20096;-58
2023/09/14 11:54:51;;;;;;;4.13;1.27;;;;;;;;;;6127643;23;20024;-56
2023/09/14 11:57:26;;;;;;;4.37;1.03;;;;;;;;;;6146827;23;20021;-58
2023/09/14 11:59:54;;;;;;;4.57;1.33;;;;;;;;;;6131587;23;20321;-57
2023/09/14 12:02:22;;;;;;;4.97;1.52;;;;;;;;;;6150804;23;20713;-55
2023/09/14 12:04:50;;;;;;;4.80;1.23;;;;;;;;;;6138110;23;20023;-57
2023/09/14 12:07:21;;;;;;;4.93;1.27;;;;;;;;;;6149821;23;20024;-56
2023/09/14 12:09:49;;;;;;;5.87;1.67;;;;;;;;;;6165256;23;20439;-56
2023/09/14 12:12:25;;;;;;;6.47;1.77;;;;;;;;;;6148142;23;20245;-56
2023/09/14 12:14:53;;;;;;;6.07;1.55;;;;;;;;;;6167717;23;20623;-56
2023/09/14 12:17:21;;;;;;;6.28;1.50;;;;;;;;;;6164639;23;20071;-54
2023/09/14 12:19:50;;;;;;;6.82;1.85;;;;;;;;;;6170762;23;20016;-56
2023/09/14 12:22:19;;;;;;;5.30;1.07;;;;;;;;;;6133345;23;20121;-57
2023/09/14 12:24:49;;;;;;;4.15;1.40;;;;;;;;;;6144650;23;20666;-57
2023/09/14 12:27:18;;;;;;;5.43;1.60;;;;;;;;;;6165737;23;20119;-57
2023/09/14 12:29:46;;;;;;;4.82;1.80;;;;;;;;;;6168255;23;20017;-58
2023/09/14 12:32:15;;;;;;;5.35;1.40;;;;;;;;;;6163941;23;20040;-57
2023/09/14 12:34:44;;;;;;;4.40;1.43;;;;;;;;;;6155813;23;20027;-56
2023/09/14 12:37:16;;;;;;;5.07;1.65;;;;;;;;;;6150241;23;20629;-56
2023/09/14 12:39:48;;;;;;;4.43;1.50;;;;;;;;;;6162194;23;20415;-57
2023/09/14 12:42:19;;;;;;;5.57;1.35;;;;;;;;;;6161646;23;20032;-54
2023/09/14 12:44:47;;;;;;;4.35;1.60;;;;;;;;;;6162250;23;20463;-56
2023/09/14 12:47:15;;;;;;;6.33;1.60;;;;;;;;;;6178832;23;20036;-56
2023/09/14 12:49:44;;;;;;;5.15;1.63;;;;;;;;;;6157434;23;20427;-57
2023/09/14 12:52:12;;;;;;;4.78;1.60;;;;;;;;;;6160871;23;20562;-55
2023/09/14 12:54:45;;;;;;;4.82;1.63;;;;;;;;;;6154283;23;20024;-57
2023/09/14 12:57:15;;;;;;;4.00;1.60;;;;;;;;;;6179470;23;20026;-57
2023/09/14 13:00:00;;;;;;;5.50;1.43;;;;;;;;;;6166571;23;20020;-57
2023/09/14 13:02:28;;;;;;;4.90;1.35;;;;;;;;;;6141301;23;20274;-58
2023/09/14 13:04:57;;;;;;;4.28;1.40;;;;;;;;;;6119991;23;20021;-57
2023/09/14 13:07:24;;;;;;;4.85;1.60;;;;;;;;;;6169908;23;20017;-58
2023/09/14 13:10:07;;;;;;;6.35;1.63;;;;;;;;;;6170062;23;20017;-56
2023/09/14 13:12:35;;;;;;;5.23;1.30;;;;;;;;;;6156735;23;20020;-57
2023/09/14 13:15:11;;;;;;;4.32;1.45;;;;;;;;;;6167946;23;20406;-57
2023/09/14 13:17:39;;;;;;;5.90;1.17;;;;;;;;;;6162061;23;20040;-58
2023/09/14 13:20:10;;;;;;;4.00;1.45;;;;;;;;;;6166146;23;20020;-57
2023/09/14 13:22:40;;;;;;;5.60;1.60;;;;;;;;;;6157496;23;20017;-57
2023/09/14 13:25:08;;;;;;;5.50;1.30;;;;;;;;;;6140465;23;20031;-55
2023/09/14 13:27:40;;;;;;;4.90;1.60;;;;;;;;;;6170787;23;20028;-57
2023/09/14 13:30:13;;;;;;;5.03;1.60;;;;;;;;;;6172857;23;20047;-57
2023/09/14 13:32:41;;;;;;;5.32;1.90;;;;;;;;;;6155654;23;20415;-57
2023/09/14 13:35:09;;;;;;;5.00;1.90;;;;;;;;;;6166043;23;20016;-57
2023/09/14 13:37:42;;;;;;;6.07;1.80;;;;;;;;;;6166787;23;20013;-58
2023/09/14 13:40:14;;;;;;;5.25;1.65;;;;;;;;;;6170298;23;20031;-56
2023/09/14 13:42:42;;;;;;;4.85;1.58;;;;;;;;;;6150189;23;20016;-57
2023/09/14 13:45:10;;;;;;;6.07;1.90;;;;;;;;;;6135518;23;20024;-56
2023/09/14 13:47:39;;;;;;;7.63;1.70;;;;;;;;;;6164505;23;20017;-57
2023/09/14 13:50:07;;;;;;;5.93;1.97;;;;;;;;;;6169224;23;20447;-57
2023/09/14 13:52:35;;;;;;;4.63;1.70;;;;;;;;;;6153132;23;20023;-57
2023/09/14 13:55:04;;;;;;;8.88;2.35;;;;;;;;;;6161531;23;20174;-56
2023/09/14 13:57:32;;;;;;;6.05;1.90;;;;;;;;;;6167046;23;20035;-58
2023/09/14 14:00:01;;;;;;;5.35;1.52;;;;;;;;;;6162745;23;20108;-57
2023/09/14 14:02:29;;;;;;;8.83;2.17;;;;;;;;;;6099194;23;20028;-58
2023/09/14 14:05:00;;;;;;;6.25;1.90;;;;;;;;;;6160000;23;20633;-57
2023/09/14 14:07:28;;;;;;;5.07;1.85;;;;;;;;;;6150982;23;20048;-56
2023/09/14 14:09:56;;;;;;;4.70;1.50;;;;;;;;;;6159594;23;20020;-57
2023/09/14 14:12:24;;;;;;;5.75;2.03;;;;;;;;;;6136426;23;20025;-57
2023/09/14 14:14:54;;;;;;;5.90;1.60;;;;;;;;;;6152102;23;20424;-57
2023/09/14 14:17:22;;;;;;;5.65;1.73;;;;;;;;;;6152420;23;20031;-55
2023/09/14 14:19:53;;;;;;;6.22;1.60;;;;;;;;;;6123860;23;20372;-58
2023/09/14 14:22:23;;;;;;;4.90;2.22;;;;;;;;;;6133257;23;20430;-58
2023/09/14 14:24:51;;;;;;;7.00;1.80;;;;;;;;;;6151700;23;20020;-58
2023/09/14 14:27:19;;;;;;;5.60;1.83;;;;;;;;;;6148173;23;20012;-57
2023/09/14 14:29:47;;;;;;;7.00;2.13;;;;;;;;;;6148005;23;20087;-57
2023/09/14 14:32:15;;;;;;;5.68;1.90;;;;;;;;;;6149465;23;20019;-57
2023/09/14 14:34:47;;;;;;;8.02;1.75;;;;;;;;;;6142962;23;20020;-57
2023/09/14 14:37:14;;;;;;;5.13;1.90;;;;;;;;;;6155160;23;20318;-57
2023/09/14 14:39:43;;;;;;;5.10;1.70;;;;;;;;;;6157719;23;20020;-56
2023/09/14 14:42:11;;;;;;;6.35;2.00;;;;;;;;;;6138481;23;20096;-57
2023/09/14 14:44:45;;;;;;;5.47;1.85;;;;;;;;;;6134770;23;20028;-57
2023/09/14 14:47:13;;;;;;;6.80;1.67;;;;;;;;;;6169094;23;20013;-57
2023/09/14 14:49:41;;;;;;;5.55;1.65;;;;;;;;;;6170231;23;20021;-57
2023/09/14 14:52:09;;;;;;;4.93;1.70;;;;;;;;;;6157301;23;20395;-57